Time;durP1;ratioP1;P1;durP2;ratioP2;P2;SDS_P1;SDS_P2;PMS_P1;PMS_P2;Temp;Humidity;BMP_temperature;BMP_pressure;BME280_temperature;BME280_humidity;BME280_pressure;Samples;Min_cycle;Max_cycle;Signal;HPM_P1;HPM_P2
2022/06/25 00:02:26;;;;;;;5.45;1.00;;;13.80;81.40;;;;;;4858658;29;20049;-80
2022/06/25 00:07:40;;;;;;;3.60;0.85;;;13.50;81.80;;;;;;4859252;29;20056;-79
2022/06/25 00:10:08;;;;;;;6.50;0.90;;;13.40;82.00;;;;;;4850985;29;20566;-79
2022/06/25 00:12:36;;;;;;;3.72;1.15;;;13.30;82.30;;;;;;4847381;29;20069;-79
2022/06/25 00:15:06;;;;;;;7.00;1.02;;;13.20;82.40;;;;;;4846387;29;20049;-79
2022/06/25 00:17:34;;;;;;;4.28;1.17;;;13.10;82.50;;;;;;4852341;29;20065;-79
2022/06/25 00:20:04;;;;;;;3.85;1.02;;;13.00;82.70;;;;;;4857319;29;20077;-79
2022/06/25 00:22:32;;;;;;;3.85;0.88;;;12.90;82.70;;;;;;4850204;29;20053;-79
2022/06/25 00:25:00;;;;;;;2.15;0.70;;;12.90;82.90;;;;;;4860671;29;20056;-80
2022/06/25 00:27:28;;;;;;;6.40;1.30;;;12.80;82.80;;;;;;4848229;29;20046;-79
2022/06/25 00:29:57;;;;;;;5.50;1.10;;;12.80;82.90;;;;;;4859820;29;20072;-79
2022/06/25 00:32:24;;;;;;;3.92;0.90;;;12.70;82.90;;;;;;4845459;29;20658;-80
2022/06/25 00:34:52;;;;;;;3.65;1.00;;;12.70;82.90;;;;;;4859893;29;20052;-79
2022/06/25 00:37:19;;;;;;;6.63;1.52;;;12.60;82.90;;;;;;4861907;29;20064;-79
2022/06/25 00:39:47;;;;;;;4.45;0.70;;;12.70;82.70;;;;;;4856604;29;20053;-79
2022/06/25 00:42:15;;;;;;;3.83;0.80;;;12.60;82.60;;;;;;4847617;29;20042;-79
2022/06/25 00:44:43;;;;;;;5.00;0.98;;;12.60;82.40;;;;;;4860272;29;20050;-79
2022/06/25 00:47:13;;;;;;;3.55;0.80;;;12.60;82.40;;;;;;4861915;29;20056;-79
2022/06/25 00:49:42;;;;;;;5.07;0.77;;;12.50;82.50;;;;;;4860874;29;20049;-79
2022/06/25 00:52:17;;;;;;;5.85;0.90;;;12.40;82.60;;;;;;4862114;29;20064;-79
2022/06/25 00:54:53;;;;;;;6.00;0.90;;;12.40;82.60;;;;;;4862708;29;20662;-80
2022/06/25 00:57:24;;;;;;;4.13;0.93;;;12.50;82.60;;;;;;4862913;29;20062;-78
2022/06/25 00:59:55;;;;;;;7.00;0.90;;;12.60;82.40;;;;;;4858340;29;20049;-78
2022/06/25 01:02:23;;;;;;;6.97;0.90;;;12.70;82.30;;;;;;4882029;29;20053;-78
2022/06/25 01:04:51;;;;;;;4.00;0.85;;;12.70;82.20;;;;;;4859776;29;20071;-78
2022/06/25 01:07:19;;;;;;;5.15;0.80;;;12.70;82.00;;;;;;4862942;29;20053;-79
2022/06/25 01:09:49;;;;;;;6.60;0.73;;;12.70;82.00;;;;;;4860561;29;20056;-79
2022/06/25 01:12:17;;;;;;;6.60;0.90;;;12.70;81.90;;;;;;4869167;29;20167;-80
2022/06/25 01:14:46;;;;;;;6.38;1.63;;;12.60;81.90;;;;;;4854330;29;20522;-80
2022/06/25 01:17:14;;;;;;;5.20;0.90;;;12.50;82.10;;;;;;4854106;29;20056;-80
2022/06/25 01:19:42;;;;;;;5.05;1.00;;;12.40;82.40;;;;;;4856859;29;20041;-80
2022/06/25 01:22:10;;;;;;;5.15;0.90;;;12.30;82.50;;;;;;4846071;29;20053;-78
2022/06/25 01:24:38;;;;;;;6.30;0.98;;;12.30;82.70;;;;;;4850439;29;20050;-79
2022/06/25 01:27:13;;;;;;;6.18;1.00;;;12.20;82.90;;;;;;4860383;29;20054;-79
2022/06/25 01:29:41;;;;;;;6.63;1.15;;;12.10;83.00;;;;;;4851296;29;20049;-80
2022/06/25 01:32:12;;;;;;;5.60;1.10;;;12.00;83.10;;;;;;4848878;29;20058;-78
2022/06/25 01:34:39;;;;;;;2.88;0.95;;;12.00;83.40;;;;;;4852042;29;20388;-79
2022/06/25 01:37:07;;;;;;;7.55;1.30;;;11.90;83.40;;;;;;4859800;29;20057;-79
2022/06/25 01:39:35;;;;;;;8.70;1.10;;;11.80;83.50;;;;;;4860038;29;20071;-77
2022/06/25 01:42:03;;;;;;;6.53;0.95;;;11.80;83.70;;;;;;4851187;29;20061;-78
2022/06/25 01:44:35;;;;;;;7.93;1.00;;;11.80;84.00;;;;;;4858170;29;20053;-78
2022/06/25 01:47:03;;;;;;;7.45;1.27;;;11.80;84.30;;;;;;4860304;29;20054;-79
2022/06/25 01:49:30;;;;;;;7.65;1.10;;;11.80;84.40;;;;;;4859006;29;20045;-79
2022/06/25 01:51:59;;;;;;;10.63;2.22;;;11.70;84.60;;;;;;4850149;29;20046;-79
2022/06/25 01:54:27;;;;;;;8.57;1.60;;;11.80;85.10;;;;;;4858695;29;20480;-78
2022/06/25 01:56:55;;;;;;;8.40;1.50;;;11.80;85.10;;;;;;4858878;29;20488;-79
2022/06/25 01:59:23;;;;;;;8.18;1.23;;;11.80;85.20;;;;;;4874336;29;20399;-79
2022/06/25 02:01:51;;;;;;;15.02;2.03;;;11.80;85.40;;;;;;4855985;29;20290;-79
2022/06/25 02:04:19;;;;;;;7.63;1.48;;;11.70;85.50;;;;;;4842056;29;20057;-79
2022/06/25 02:06:46;;;;;;;8.18;1.42;;;11.70;85.70;;;;;;4859608;29;20057;-79
2022/06/25 02:09:14;;;;;;;7.03;1.27;;;11.70;85.70;;;;;;4858771;29;20041;-79
2022/06/25 02:11:41;;;;;;;8.18;1.55;;;11.60;85.80;;;;;;4849613;29;20061;-79
2022/06/25 02:14:09;;;;;;;6.97;1.55;;;11.60;85.80;;;;;;4854912;29;20042;-79
2022/06/25 02:16:36;;;;;;;7.20;1.20;;;11.50;85.80;;;;;;4855611;29;20057;-79
2022/06/25 02:19:05;;;;;;;7.95;1.45;;;11.40;85.80;;;;;;4858272;29;20049;-79
2022/06/25 02:21:32;;;;;;;6.90;1.40;;;11.40;85.80;;;;;;4837031;29;20499;-79
2022/06/25 02:24:00;;;;;;;9.80;1.50;;;11.30;86.20;;;;;;4840717;29;20136;-79
2022/06/25 02:26:29;;;;;;;4.93;1.30;;;11.30;86.40;;;;;;4853263;29;20053;-79
2022/06/25 02:28:59;;;;;;;8.10;1.80;;;11.30;86.40;;;;;;4851926;29;20049;-79
2022/06/25 02:31:30;;;;;;;7.15;1.52;;;11.30;86.40;;;;;;4850412;29;20049;-79
2022/06/25 02:33:57;;;;;;;10.95;1.73;;;11.20;86.40;;;;;;4857492;29;20069;-79
2022/06/25 02:36:26;;;;;;;6.03;1.27;;;11.10;86.60;;;;;;4857527;29;20057;-79
2022/06/25 02:38:54;;;;;;;9.65;1.27;;;11.10;86.60;;;;;;4850075;29;20408;-79
2022/06/25 02:41:23;;;;;;;4.28;1.30;;;11.00;86.90;;;;;;4868937;29;20053;-79
2022/06/25 02:43:51;;;;;;;6.82;1.70;;;11.00;87.00;;;;;;4858918;29;20069;-79
2022/06/25 02:46:35;;;;;;;7.47;1.70;;;11.00;87.10;;;;;;4857753;29;20049;-79
2022/06/25 02:49:03;;;;;;;7.38;1.52;;;11.00;87.20;;;;;;4849228;29;20050;-79
2022/06/25 02:51:31;;;;;;;8.18;2.28;;;11.00;87.30;;;;;;4857824;29;20049;-78
2022/06/25 02:54:00;;;;;;;10.27;1.80;;;10.90;87.30;;;;;;4856106;29;20045;-79
2022/06/25 02:59:14;;;;;;;6.78;1.50;;;10.80;87.40;;;;;;4845995;29;20054;-79
2022/06/25 03:01:46;;;;;;;9.13;1.60;;;10.80;87.50;;;;;;4870058;29;20046;-78
2022/06/25 03:04:16;;;;;;;12.48;1.63;;;10.80;87.70;;;;;;4843252;29;20049;-79
2022/06/25 03:06:46;;;;;;;11.13;1.85;;;10.70;87.70;;;;;;4848517;29;20060;-79
2022/06/25 03:09:14;;;;;;;9.77;1.50;;;10.60;87.80;;;;;;4855681;29;20049;-79
2022/06/25 03:11:42;;;;;;;7.93;1.23;;;10.70;87.80;;;;;;4848931;29;20197;-80
2022/06/25 03:14:09;;;;;;;7.13;1.27;;;10.60;88.00;;;;;;4856984;29;20555;-79
2022/06/25 03:16:37;;;;;;;6.05;1.42;;;10.60;88.10;;;;;;4866885;29;20050;-79
2022/06/25 03:19:08;;;;;;;7.78;1.55;;;10.60;88.00;;;;;;4852276;29;20054;-79
2022/06/25 03:21:48;;;;;;;8.75;1.40;;;10.50;88.00;;;;;;4859837;29;20519;-79
2022/06/25 03:24:19;;;;;;;9.48;1.15;;;10.50;88.00;;;;;;4857651;29;20053;-79
2022/06/25 03:26:46;;;;;;;13.18;1.50;;;10.40;88.20;;;;;;4861286;29;20053;-79
2022/06/25 03:29:14;;;;;;;11.15;1.50;;;10.40;88.30;;;;;;4834214;29;20050;-79
2022/06/25 03:31:43;;;;;;;11.40;1.40;;;10.40;88.40;;;;;;4850281;29;20072;-79
2022/06/25 03:34:42;;;;;;;6.07;1.30;;;10.40;88.50;;;;;;4844993;29;20411;-79
2022/06/25 03:37:10;;;;;;;8.50;1.50;;;10.40;88.50;;;;;;4844657;29;20049;-79
2022/06/25 03:39:38;;;;;;;9.98;1.20;;;10.40;88.50;;;;;;4860916;29;20053;-76
2022/06/25 03:42:06;;;;;;;7.25;1.50;;;10.40;88.50;;;;;;4862416;29;20049;-79
2022/06/25 03:44:44;;;;;;;6.38;1.20;;;10.40;88.60;;;;;;4861440;29;20042;-79
2022/06/25 03:47:22;;;;;;;5.88;1.00;;;10.40;88.70;;;;;;4847540;29;20053;-80
2022/06/25 03:49:50;;;;;;;3.70;1.00;;;10.40;88.60;;;;;;4858264;29;20609;-79
2022/06/25 03:52:18;;;;;;;6.40;1.25;;;10.40;88.70;;;;;;4861159;29;20057;-78
2022/06/25 03:54:46;;;;;;;12.93;1.58;;;10.40;88.60;;;;;;4861069;29;20049;-79
2022/06/25 03:57:13;;;;;;;15.13;1.60;;;10.40;88.60;;;;;;4855689;29;20475;-78
2022/06/25 04:00:06;;;;;;;7.32;1.65;;;10.40;88.60;;;;;;4847695;29;20065;-78
2022/06/25 04:02:47;;;;;;;10.43;1.55;;;10.40;88.50;;;;;;4856291;29;20053;-79
2022/06/25 04:05:35;;;;;;;13.48;2.05;;;10.40;88.40;;;;;;4870127;29;20061;-78
2022/06/25 04:08:21;;;;;;;9.52;1.48;;;10.40;88.50;;;;;;4859595;29;20072;-78
2022/06/25 04:10:50;;;;;;;8.73;1.67;;;10.40;88.40;;;;;;4842337;29;20053;-79
2022/06/25 04:13:18;;;;;;;6.22;1.05;;;10.40;88.40;;;;;;4842501;29;20440;-78
2022/06/25 04:15:47;;;;;;;11.68;1.45;;;10.50;88.40;;;;;;4860528;29;20140;-79
2022/06/25 04:18:15;;;;;;;7.32;1.38;;;10.50;88.30;;;;;;4858444;29;20050;-79
2022/06/25 04:20:43;;;;;;;8.80;1.40;;;10.50;88.30;;;;;;4851756;29;20404;-79
2022/06/25 04:23:13;;;;;;;7.38;1.20;;;10.50;88.30;;;;;;4839092;29;20072;-80
2022/06/25 04:25:41;;;;;;;8.60;1.50;;;10.50;88.30;;;;;;4859325;29;20057;-79
2022/06/25 04:31:02;;;;;;;9.38;1.02;;;10.50;88.20;;;;;;4868412;29;20041;-79
2022/06/25 04:33:30;;;;;;;8.63;1.10;;;10.50;88.10;;;;;;4848188;29;20058;-79
2022/06/25 04:36:04;;;;;;;9.88;1.50;;;10.50;88.10;;;;;;4847764;29;20057;-79
2022/06/25 04:38:45;;;;;;;12.95;1.25;;;10.50;88.10;;;;;;4858319;29;20046;-79
2022/06/25 04:41:13;;;;;;;8.48;1.70;;;10.50;88.10;;;;;;4844424;29;20057;-79
2022/06/25 04:43:43;;;;;;;9.73;1.33;;;10.60;88.00;;;;;;4859628;29;20049;-79
2022/06/25 04:46:15;;;;;;;12.52;1.58;;;10.60;87.90;;;;;;4836172;29;20049;-80
2022/06/25 04:48:45;;;;;;;14.98;1.50;;;10.60;88.00;;;;;;4858831;29;20062;-79
2022/06/25 04:51:28;;;;;;;14.45;2.05;;;10.60;87.90;;;;;;4859611;29;20080;-78
2022/06/25 04:53:56;;;;;;;14.15;1.40;;;10.70;88.00;;;;;;4857751;29;20058;-79
2022/06/25 04:56:32;;;;;;;5.72;1.35;;;10.70;87.90;;;;;;4849031;29;20054;-78
2022/06/25 04:59:00;;;;;;;7.47;1.17;;;10.70;87.80;;;;;;4859888;29;20053;-79
2022/06/25 05:01:46;;;;;;;10.95;1.35;;;10.70;87.70;;;;;;4846092;29;20515;-80
2022/06/25 05:04:14;;;;;;;7.85;1.48;;;10.80;87.70;;;;;;4859534;29;20522;-78
2022/06/25 05:06:43;;;;;;;14.02;1.73;;;10.80;87.70;;;;;;4865173;29;20042;-77
2022/06/25 05:09:14;;;;;;;9.55;1.45;;;10.90;87.60;;;;;;4860377;29;20053;-78
2022/06/25 05:11:43;;;;;;;11.32;1.58;;;11.00;87.50;;;;;;4848181;29;20053;-79
2022/06/25 05:14:11;;;;;;;10.18;1.40;;;11.00;87.40;;;;;;4862125;29;20057;-79
2022/06/25 05:16:40;;;;;;;8.38;1.90;;;11.10;87.40;;;;;;4855193;29;20046;-79
2022/06/25 05:19:07;;;;;;;11.38;1.98;;;11.20;87.10;;;;;;4861360;29;20049;-79
2022/06/25 05:21:36;;;;;;;9.40;1.33;;;11.20;87.00;;;;;;4869768;29;20045;-78
2022/06/25 05:24:06;;;;;;;12.35;1.55;;;11.20;86.90;;;;;;4841155;29;20053;-78
2022/06/25 05:26:34;;;;;;;7.88;1.15;;;11.10;86.80;;;;;;4869546;29;20054;-78
2022/06/25 05:29:02;;;;;;;7.07;1.30;;;11.10;86.90;;;;;;4844045;29;20054;-78
2022/06/25 05:31:30;;;;;;;8.90;1.27;;;11.10;86.90;;;;;;4862301;29;20052;-78
2022/06/25 05:33:58;;;;;;;9.23;1.52;;;11.10;86.80;;;;;;4849842;29;20072;-78
2022/06/25 05:36:26;;;;;;;8.90;1.23;;;11.20;86.80;;;;;;4848174;29;20046;-78
2022/06/25 05:38:53;;;;;;;7.68;1.40;;;11.10;86.90;;;;;;4854152;29;20061;-80
2022/06/25 05:41:21;;;;;;;11.88;1.55;;;11.20;86.80;;;;;;4861345;29;20076;-79
2022/06/25 05:43:49;;;;;;;10.65;1.30;;;11.30;86.80;;;;;;4861466;29;20049;-79
2022/06/25 05:46:16;;;;;;;11.60;1.48;;;11.30;86.70;;;;;;4847473;29;20057;-78
2022/06/25 05:48:44;;;;;;;9.38;1.60;;;11.40;86.70;;;;;;4856291;29;20049;-79
2022/06/25 05:51:12;;;;;;;11.10;1.52;;;11.50;86.60;;;;;;4859136;29;20050;-78
2022/06/25 05:53:45;;;;;;;8.75;1.55;;;11.50;86.50;;;;;;4845421;29;20058;-79
2022/06/25 05:56:12;;;;;;;10.23;1.38;;;11.60;86.30;;;;;;4853252;29;20419;-79
2022/06/25 05:58:40;;;;;;;16.35;1.90;;;11.70;86.20;;;;;;4848582;29;20064;-79
2022/06/25 06:01:08;;;;;;;7.20;1.30;;;11.80;86.00;;;;;;4847333;29;20050;-79
2022/06/25 06:03:35;;;;;;;6.95;1.23;;;11.90;85.90;;;;;;4857202;29;20083;-79
2022/06/25 06:06:03;;;;;;;12.35;1.65;;;12.00;85.80;;;;;;4855269;29;20052;-78
2022/06/25 06:08:31;;;;;;;13.70;1.70;;;12.10;85.60;;;;;;4858906;29;20053;-78
2022/06/25 06:10:59;;;;;;;6.07;1.25;;;12.20;85.30;;;;;;4849406;29;20045;-78
2022/06/25 06:13:27;;;;;;;5.38;1.38;;;12.30;85.20;;;;;;4855832;29;20056;-78
2022/06/25 06:15:55;;;;;;;7.85;1.08;;;12.40;84.80;;;;;;4845294;29;20058;-78
2022/06/25 06:18:23;;;;;;;8.38;1.15;;;12.50;84.20;;;;;;4849514;29;20057;-79
2022/06/25 06:20:51;;;;;;;13.40;2.00;;;12.60;84.10;;;;;;4849087;29;20061;-79
2022/06/25 06:23:19;;;;;;;14.07;1.60;;;12.60;84.00;;;;;;4854765;29;20064;-79
2022/06/25 06:25:46;;;;;;;12.73;1.70;;;12.60;83.80;;;;;;4844630;29;20050;-78
2022/06/25 06:28:14;;;;;;;6.63;1.35;;;12.40;83.80;;;;;;4853681;29;20058;-78
2022/06/25 06:30:42;;;;;;;8.93;1.50;;;12.40;83.90;;;;;;4847894;29;20069;-78
2022/06/25 06:33:10;;;;;;;13.45;1.50;;;12.30;84.00;;;;;;4853647;29;20058;-79
2022/06/25 06:35:37;;;;;;;11.60;1.65;;;12.40;84.00;;;;;;4828280;29;20046;-78
2022/06/25 06:38:05;;;;;;;7.47;1.30;;;12.50;83.80;;;;;;4872047;29;20516;-78
2022/06/25 06:40:33;;;;;;;7.80;1.33;;;12.60;83.60;;;;;;4843032;29;20056;-78
2022/06/25 06:43:01;;;;;;;9.13;1.50;;;12.70;83.40;;;;;;4848711;29;20672;-78
2022/06/25 06:45:28;;;;;;;4.07;1.33;;;12.80;83.10;;;;;;4854771;29;20050;-78
2022/06/25 06:47:56;;;;;;;12.48;1.70;;;12.80;82.80;;;;;;4858473;29;20061;-78
2022/06/25 06:50:24;;;;;;;7.10;1.40;;;12.90;82.30;;;;;;4856649;29;20045;-78
2022/06/25 06:52:52;;;;;;;9.50;1.35;;;13.00;82.30;;;;;;4854573;29;20045;-78
2022/06/25 06:55:20;;;;;;;11.00;1.42;;;13.10;81.80;;;;;;4850154;29;20045;-78
2022/06/25 06:57:48;;;;;;;6.93;1.23;;;13.10;81.60;;;;;;4850243;29;20484;-78
2022/06/25 07:00:17;;;;;;;3.85;1.02;;;13.10;81.70;;;;;;4861482;29;20062;-78
2022/06/25 07:02:45;;;;;;;6.35;1.50;;;13.20;81.30;;;;;;4856089;29;20053;-78
2022/06/25 07:05:12;;;;;;;8.65;0.98;;;13.30;81.20;;;;;;4859049;29;20062;-79
2022/06/25 07:07:40;;;;;;;12.60;1.92;;;13.30;80.80;;;;;;4866407;29;20056;-78
2022/06/25 07:10:08;;;;;;;11.15;1.48;;;13.30;80.20;;;;;;4863684;29;20507;-78
2022/06/25 07:12:36;;;;;;;10.05;1.60;;;13.40;80.10;;;;;;4858913;29;20056;-79
2022/06/25 07:15:04;;;;;;;6.45;1.38;;;13.50;79.60;;;;;;4861982;29;20120;-77
2022/06/25 07:17:31;;;;;;;6.85;1.65;;;13.50;79.30;;;;;;4864162;29;20444;-79
2022/06/25 07:20:00;;;;;;;12.15;1.75;;;13.60;79.20;;;;;;4863935;29;20053;-77
2022/06/25 07:22:27;;;;;;;5.32;1.25;;;13.70;79.20;;;;;;4865759;29;20057;-78
2022/06/25 07:24:55;;;;;;;8.82;1.30;;;13.80;77.90;;;;;;4865596;29;20065;-77
2022/06/25 07:27:22;;;;;;;7.15;1.40;;;13.80;77.80;;;;;;4863852;29;20053;-78
2022/06/25 07:29:50;;;;;;;8.50;1.80;;;13.80;77.60;;;;;;4865699;29;20507;-78
2022/06/25 07:32:18;;;;;;;6.35;1.25;;;13.80;77.60;;;;;;4862348;29;20045;-78
2022/06/25 07:34:45;;;;;;;5.22;1.00;;;13.90;77.60;;;;;;4863916;29;20061;-80
2022/06/25 07:37:14;;;;;;;8.68;1.33;;;13.90;77.10;;;;;;4854494;29;20444;-79
2022/06/25 07:39:43;;;;;;;8.98;1.60;;;14.00;75.80;;;;;;4864788;29;20072;-79
2022/06/25 07:42:10;;;;;;;6.05;1.40;;;14.00;76.30;;;;;;4858292;29;20054;-78
2022/06/25 07:44:38;;;;;;;10.63;1.50;;;14.10;75.80;;;;;;4861846;29;20053;-78
2022/06/25 07:47:06;;;;;;;6.22;1.42;;;14.30;75.10;;;;;;4859170;29;20450;-79
2022/06/25 07:51:56;;;;;;;4.72;1.30;;;14.30;75.10;;;;;;4849124;29;20057;-79
2022/06/25 07:52:21;;;;;;;6.88;1.42;;;14.50;74.60;;;;;;4854289;29;20046;-78
2022/06/25 07:54:49;;;;;;;8.10;1.55;;;14.60;73.30;;;;;;4860571;29;20053;-78
2022/06/25 07:57:17;;;;;;;9.23;1.52;;;14.70;73.70;;;;;;4878323;29;20396;-79
2022/06/25 07:59:44;;;;;;;10.75;1.60;;;14.80;73.30;;;;;;4861225;29;20076;-77
2022/06/25 08:02:12;;;;;;;9.75;1.73;;;14.70;71.70;;;;;;4846885;29;20056;-79
2022/06/25 08:04:40;;;;;;;7.95;1.50;;;14.70;71.80;;;;;;4856294;29;20514;-78
2022/06/25 08:07:08;;;;;;;5.40;1.30;;;14.70;72.30;;;;;;4854368;29;20503;-78
2022/06/25 08:09:36;;;;;;;9.38;1.52;;;14.70;72.10;;;;;;4849434;29;20053;-78
2022/06/25 08:12:04;;;;;;;8.57;1.48;;;14.80;70.30;;;;;;4849684;29;20073;-78
2022/06/25 08:14:31;;;;;;;7.55;1.52;;;14.80;69.70;;;;;;4853288;29;20037;-77
2022/06/25 08:16:59;;;;;;;6.18;1.33;;;14.90;70.30;;;;;;4854345;29;20045;-78
2022/06/25 08:19:27;;;;;;;5.60;1.30;;;15.10;69.40;;;;;;4854133;29;20042;-78
2022/06/25 08:21:54;;;;;;;8.18;1.35;;;15.20;68.60;;;;;;4859990;29;20053;-78
2022/06/25 08:24:22;;;;;;;8.57;1.60;;;15.40;68.50;;;;;;4857003;29;20053;-78
2022/06/25 08:26:50;;;;;;;8.55;1.67;;;15.50;67.80;;;;;;4876197;29;20053;-78
2022/06/25 08:29:18;;;;;;;4.97;1.70;;;15.70;67.10;;;;;;4847724;29;20072;-78
2022/06/25 08:31:45;;;;;;;6.70;1.60;;;15.90;67.10;;;;;;4860266;29;20065;-78
2022/06/25 08:34:13;;;;;;;8.05;1.83;;;16.10;65.60;;;;;;4859731;29;20054;-79
2022/06/25 08:36:41;;;;;;;8.90;1.77;;;16.20;63.80;;;;;;4861483;29;20492;-79
2022/06/25 08:39:09;;;;;;;7.65;1.10;;;16.20;63.10;;;;;;4861658;29;20053;-79
2022/06/25 08:41:37;;;;;;;6.55;1.50;;;16.20;62.90;;;;;;4861394;29;20065;-79
2022/06/25 08:44:05;;;;;;;8.82;1.83;;;16.20;62.90;;;;;;4859294;29;20053;-79
2022/06/25 08:46:34;;;;;;;2.25;1.02;;;16.30;63.20;;;;;;4859374;29;20045;-79
2022/06/25 08:49:02;;;;;;;9.82;1.63;;;16.30;62.20;;;;;;4850387;29;20073;-78
2022/06/25 08:51:32;;;;;;;5.97;1.70;;;16.30;62.40;;;;;;4829065;29;20045;-79
2022/06/25 08:54:01;;;;;;;9.80;1.20;;;16.30;62.80;;;;;;4848161;29;20057;-78
2022/06/25 08:56:35;;;;;;;6.72;1.20;;;16.20;62.80;;;;;;4844699;29;20522;-79
2022/06/25 08:59:03;;;;;;;8.20;1.67;;;16.30;63.10;;;;;;4869652;29;20076;-77
2022/06/25 09:01:30;;;;;;;9.23;1.73;;;16.40;61.30;;;;;;4869887;29;20424;-78
2022/06/25 09:03:58;;;;;;;3.05;1.17;;;16.30;61.60;;;;;;4857015;29;20052;-78
2022/06/25 09:06:28;;;;;;;5.00;1.02;;;16.30;61.60;;;;;;4856684;29;20496;-78
2022/06/25 09:09:09;;;;;;;4.60;1.17;;;16.20;61.50;;;;;;4848706;29;20056;-77
2022/06/25 09:11:55;;;;;;;5.22;1.20;;;16.20;62.50;;;;;;4848594;29;20050;-78
2022/06/25 09:14:28;;;;;;;3.78;0.93;;;16.20;61.80;;;;;;4850308;29;20046;-78
2022/06/25 09:17:18;;;;;;;4.88;1.05;;;16.20;61.00;;;;;;4852909;29;20060;-77
2022/06/25 09:19:47;;;;;;;3.15;0.70;;;16.20;60.70;;;;;;4861219;29;20389;-78
2022/06/25 09:22:20;;;;;;;5.97;1.08;;;16.30;60.40;;;;;;4860520;29;20054;-78
2022/06/25 09:24:48;;;;;;;;;;;16.50;59.30;;;;;;4844660;29;20065;-78
2022/06/25 09:27:20;;;;;;;6.38;1.10;;;16.70;58.40;;;;;;4861203;29;19924;-78
2022/06/25 09:29:50;;;;;;;5.97;1.30;;;16.90;58.00;;;;;;4860868;29;20057;-77
2022/06/25 09:32:18;;;;;;;5.40;1.40;;;17.20;58.00;;;;;;4858194;29;20053;-77
2022/06/25 09:34:46;;;;;;;5.60;1.00;;;17.40;57.10;;;;;;4856100;29;20531;-77
2022/06/25 09:37:35;;;;;;;5.55;1.20;;;17.50;56.70;;;;;;4858053;29;20049;-78
2022/06/25 09:40:04;;;;;;;3.75;0.90;;;17.70;55.30;;;;;;4860159;29;20084;-77
2022/06/25 09:42:34;;;;;;;4.43;1.15;;;17.80;55.20;;;;;;4860116;29;20069;-77
2022/06/25 09:45:08;;;;;;;6.13;1.48;;;17.80;55.30;;;;;;4870103;29;20054;-76
2022/06/25 09:47:45;;;;;;;3.75;0.95;;;17.90;55.60;;;;;;4842904;29;20050;-79
2022/06/25 09:50:16;;;;;;;7.18;1.23;;;17.90;56.40;;;;;;4853866;29;20661;-76
2022/06/25 09:52:59;;;;;;;7.47;1.60;;;17.90;56.40;;;;;;4861267;29;20046;-78
2022/06/25 09:55:30;;;;;;;10.05;1.20;;;17.70;56.40;;;;;;4855087;29;20061;-79
2022/06/25 09:58:02;;;;;;;7.65;1.33;;;17.30;57.30;;;;;;4862820;29;20392;-81
2022/06/25 10:00:30;;;;;;;4.88;1.40;;;17.00;59.20;;;;;;4863078;29;20064;-77
2022/06/25 10:03:00;;;;;;;6.55;1.55;;;16.80;59.80;;;;;;4852567;29;20056;-78
2022/06/25 10:05:38;;;;;;;3.60;0.90;;;16.60;60.60;;;;;;4849086;29;20061;-79
2022/06/25 10:08:11;;;;;;;7.78;1.50;;;16.50;61.50;;;;;;4843477;29;20420;-79
2022/06/25 10:10:42;;;;;;;5.82;1.17;;;16.70;61.80;;;;;;4849511;29;20495;-79
2022/06/25 10:13:10;;;;;;;5.20;1.52;;;17.20;61.60;;;;;;4853862;29;20038;-76
2022/06/25 10:15:38;;;;;;;3.47;1.25;;;17.70;58.10;;;;;;4858362;29;20510;-81
2022/06/25 10:18:09;;;;;;;4.75;1.08;;;18.00;57.80;;;;;;4837861;29;20072;-77
2022/06/25 10:20:39;;;;;;;2.03;0.73;;;18.10;56.20;;;;;;4856878;29;20508;-78
2022/06/25 10:23:09;;;;;;;1.92;0.60;;;18.30;56.10;;;;;;4858536;29;20117;-78
2022/06/25 10:25:38;;;;;;;3.42;0.70;;;18.30;55.80;;;;;;4842575;29;20475;-78
2022/06/25 10:28:11;;;;;;;2.45;0.77;;;18.40;55.20;;;;;;4859861;29;20408;-78
2022/06/25 10:30:49;;;;;;;3.45;0.95;;;18.60;55.50;;;;;;4860121;29;20049;-78
2022/06/25 10:33:23;;;;;;;6.85;1.10;;;18.80;54.00;;;;;;4860284;29;20053;-78
2022/06/25 10:35:52;;;;;;;3.78;1.10;;;18.80;54.30;;;;;;4858672;29;20053;-78
2022/06/25 10:38:22;;;;;;;5.57;1.10;;;19.00;53.60;;;;;;4871343;29;20499;-78
2022/06/25 10:40:51;;;;;;;8.68;1.20;;;19.10;53.00;;;;;;4873695;29;20045;-78
2022/06/25 10:43:40;;;;;;;5.32;1.15;;;18.80;53.40;;;;;;4843184;29;20046;-78
2022/06/25 10:46:26;;;;;;;4.82;1.15;;;18.80;53.30;;;;;;4873847;29;20053;-76
2022/06/25 10:49:06;;;;;;;7.78;1.27;;;18.80;53.10;;;;;;4858533;29;20057;-76
2022/06/25 10:51:34;;;;;;;5.90;1.23;;;19.10;51.40;;;;;;4859900;29;20408;-78
2022/06/25 10:54:03;;;;;;;4.75;1.10;;;19.30;50.50;;;;;;4858028;29;20065;-77
2022/06/25 10:56:34;;;;;;;7.00;2.13;;;19.30;50.30;;;;;;4858128;29;20053;-77
2022/06/25 10:59:02;;;;;;;2.50;0.90;;;19.40;49.90;;;;;;4859940;29;20042;-77
2022/06/25 11:01:31;;;;;;;2.35;1.08;;;19.40;49.80;;;;;;4859548;29;20049;-76
2022/06/25 11:04:01;;;;;;;5.80;1.33;;;19.60;50.50;;;;;;4859496;29;20061;-76
2022/06/25 11:06:33;;;;;;;7.05;1.27;;;19.60;48.50;;;;;;4858768;29;20049;-77
2022/06/25 11:09:08;;;;;;;6.05;1.40;;;19.60;48.70;;;;;;4859867;29;20076;-78
2022/06/25 11:11:36;;;;;;;9.70;1.10;;;19.70;47.60;;;;;;4858469;29;20057;-77
2022/06/25 11:14:13;;;;;;;3.50;1.00;;;19.60;48.00;;;;;;4873090;29;20057;-77
2022/06/25 11:16:41;;;;;;;4.47;1.10;;;19.40;47.90;;;;;;4859770;29;20049;-77
2022/06/25 11:19:09;;;;;;;5.85;1.00;;;19.20;49.10;;;;;;4857988;29;20045;-77
2022/06/25 11:21:43;;;;;;;3.28;1.00;;;19.20;50.10;;;;;;4859516;29;20058;-76
2022/06/25 11:24:17;;;;;;;5.60;1.00;;;19.40;49.20;;;;;;4859474;29;20068;-77
2022/06/25 11:29:38;;;;;;;5.20;0.80;;;19.70;47.50;;;;;;4859458;29;20055;-76
2022/06/25 11:32:07;;;;;;;6.60;1.20;;;19.80;46.90;;;;;;4859449;29;20399;-77
2022/06/25 11:34:35;;;;;;;5.40;1.33;;;19.90;46.90;;;;;;4859511;29;20072;-77
2022/06/25 11:37:10;;;;;;;5.30;0.80;;;20.20;46.10;;;;;;4862941;29;20491;-77
2022/06/25 11:39:40;;;;;;;8.30;1.42;;;20.30;47.00;;;;;;4862555;29;20403;-76
2022/06/25 11:42:09;;;;;;;7.20;1.10;;;20.60;45.10;;;;;;4862632;29;20053;-79
2022/06/25 11:44:49;;;;;;;7.13;1.23;;;20.80;45.10;;;;;;4862273;29;20061;-76
2022/06/25 11:47:25;;;;;;;4.18;1.13;;;21.20;44.70;;;;;;4862020;29;20057;-77
2022/06/25 11:49:53;;;;;;;2.53;0.88;;;21.40;43.60;;;;;;4862895;29;20082;-78
2022/06/25 11:52:23;;;;;;;3.30;0.90;;;21.50;41.40;;;;;;4852452;29;20058;-77
2022/06/25 11:54:52;;;;;;;1.95;0.70;;;21.50;41.60;;;;;;4843224;29;20077;-77
2022/06/25 11:57:26;;;;;;;5.25;0.80;;;21.10;40.30;;;;;;4844352;29;20518;-78
2022/06/25 11:59:55;;;;;;;3.08;0.80;;;20.70;41.50;;;;;;4844290;29;20045;-78
2022/06/25 12:02:24;;;;;;;7.40;1.40;;;20.50;42.80;;;;;;4843885;29;20117;-78
2022/06/25 12:05:00;;;;;;;3.95;1.17;;;20.40;43.50;;;;;;4827599;29;20483;-78
2022/06/25 12:07:31;;;;;;;6.40;0.93;;;20.30;44.00;;;;;;4843116;29;20261;-77
2022/06/25 12:10:03;;;;;;;6.30;1.25;;;20.30;43.50;;;;;;4842942;29;20049;-77
2022/06/25 12:12:31;;;;;;;8.40;1.25;;;20.10;43.00;;;;;;4844203;29;20061;-77
2022/06/25 12:15:01;;;;;;;3.90;0.77;;;19.80;43.60;;;;;;4843858;29;20057;-77
2022/06/25 12:17:35;;;;;;;4.00;1.25;;;19.50;45.20;;;;;;4843660;29;20400;-77
2022/06/25 12:20:10;;;;;;;;;;;19.30;46.70;;;;;;4844372;29;20054;-78
2022/06/25 12:22:41;;;;;;;5.22;1.20;;;19.10;47.90;;;;;;4827501;29;20274;-78
2022/06/25 12:25:10;;;;;;;3.72;0.90;;;19.00;49.20;;;;;;4844131;29;20050;-78
2022/06/25 12:27:49;;;;;;;3.72;1.10;;;19.30;49.00;;;;;;4842681;29;20050;-77
2022/06/25 12:30:33;;;;;;;3.08;0.90;;;19.80;48.70;;;;;;4843225;29;20057;-77
2022/06/25 12:33:06;;;;;;;6.47;1.00;;;20.00;47.20;;;;;;4843891;29;20053;-77
2022/06/25 12:35:38;;;;;;;1.48;0.50;;;20.10;46.90;;;;;;4842545;29;20409;-77
2022/06/25 12:38:14;;;;;;;2.20;0.60;;;20.30;44.60;;;;;;4843576;29;20050;-77
2022/06/25 12:41:00;;;;;;;0.88;0.43;;;20.30;44.70;;;;;;4842663;29;20069;-78
2022/06/25 12:43:46;;;;;;;3.05;0.50;;;20.70;44.80;;;;;;4860600;29;20521;-77
2022/06/25 12:46:18;;;;;;;3.42;0.80;;;21.30;42.70;;;;;;4859831;29;20053;-78
2022/06/25 12:48:46;;;;;;;4.68;0.60;;;21.70;41.50;;;;;;4861643;29;20041;-77
2022/06/25 12:51:16;;;;;;;1.92;0.65;;;21.90;41.50;;;;;;4861484;29;20072;-76
2022/06/25 12:53:44;;;;;;;1.88;0.60;;;22.30;41.60;;;;;;4861662;29;20084;-77
2022/06/25 12:56:12;;;;;;;3.75;0.70;;;22.40;40.30;;;;;;4860437;29;20058;-77
2022/06/25 12:58:41;;;;;;;1.27;0.60;;;22.30;40.30;;;;;;4861238;29;20522;-76
2022/06/25 13:01:26;;;;;;;3.88;1.05;;;22.00;40.10;;;;;;4861471;29;20061;-77
2022/06/25 13:03:54;;;;;;;2.95;0.63;;;21.70;41.10;;;;;;4844935;29;20054;-76
2022/06/25 13:06:21;;;;;;;1.23;0.75;;;21.80;41.90;;;;;;4860963;29;20053;-76
2022/06/25 13:08:49;;;;;;;4.05;0.60;;;21.70;41.40;;;;;;4856929;29;20508;-76
2022/06/25 13:11:21;;;;;;;2.92;0.80;;;21.30;40.40;;;;;;4857093;29;20423;-76
2022/06/25 13:13:51;;;;;;;2.00;0.77;;;21.40;41.80;;;;;;4841405;29;20455;-76